createdAt,value
2022-08-03T00:01:08.801Z,4.00
2022-08-03T00:06:22.442Z,4.40
2022-08-03T00:11:38.106Z,4.10
2022-08-03T00:16:59.218Z,4.10
2022-08-03T00:22:17.951Z,3.40
2022-08-03T00:27:35.327Z,3.40
2022-08-03T00:32:53.538Z,4.60
2022-08-03T00:38:13.123Z,3.20
2022-08-03T00:43:21.160Z,4.30
2022-08-03T00:48:36.647Z,4.30
2022-08-03T00:59:01.952Z,3.70
2022-08-03T01:04:16.630Z,3.30
2022-08-03T01:09:46.262Z,3.30
2022-08-03T07:19:03.717Z,6.70
2022-08-03T07:24:14.688Z,7.10
2022-08-03T07:29:24.560Z,6.50
2022-08-03T07:34:32.116Z,5.80
2022-08-03T07:39:39.366Z,5.70
2022-08-03T07:44:46.799Z,5.30
2022-08-03T07:49:55.387Z,5.50
2022-08-03T07:55:08.638Z,4.20
2022-08-03T08:00:20.968Z,3.90
2022-08-03T08:05:29.750Z,3.60
2022-08-03T08:10:40.216Z,3.90
2022-08-03T08:15:47.743Z,2.40
2022-08-03T08:20:55.505Z,2.70
2022-08-03T08:26:03.990Z,2.50
2022-08-03T08:31:11.760Z,2.60
2022-08-03T08:36:19.419Z,3.10
2022-08-03T08:41:32.113Z,2.90
2022-08-03T08:46:41.707Z,2.80
2022-08-03T08:52:00.797Z,2.50
2022-08-03T08:57:33.533Z,2.60
2022-08-03T09:02:46.150Z,2.60
2022-08-03T09:08:07.265Z,2.30
2022-08-03T09:13:14.790Z,2.40
2022-08-03T09:18:32.843Z,2.00
2022-08-03T09:24:02.325Z,2.20
2022-08-03T09:29:15.205Z,2.40
2022-08-03T09:34:34.370Z,2.30
2022-08-03T09:39:53.980Z,2.00
2022-08-03T09:45:04.458Z,2.30
2022-08-03T09:50:13.593Z,2.00
2022-08-03T09:56:34.146Z,2.50
2022-08-03T10:01:01.382Z,2.30
2022-08-03T10:06:20.588Z,2.10
2022-08-03T10:11:40.873Z,2.30
2022-08-03T10:17:02.721Z,2.30
2022-08-03T10:22:29.095Z,2.60
2022-08-03T10:27:39.174Z,2.90
2022-08-03T10:32:54.793Z,2.90
2022-08-03T10:38:05.221Z,2.30
2022-08-03T10:43:24.422Z,2.90
2022-08-03T10:48:33.217Z,2.50
2022-08-03T10:53:55.207Z,3.00
2022-08-03T10:59:03.901Z,2.50
2022-08-03T11:04:24.416Z,3.20
2022-08-03T11:09:44.047Z,2.40
2022-08-03T11:14:54.508Z,2.10
2022-08-03T11:20:02.061Z,2.20
2022-08-03T11:25:54.914Z,4.20
2022-08-03T11:30:44.347Z,2.60
2022-08-03T11:36:03.648Z,2.20
2022-08-03T11:41:45.084Z,2.60
2022-08-03T11:46:54.368Z,2.60
2022-08-03T11:52:27.038Z,2.60
2022-08-03T11:59:12.972Z,2.50
2022-08-03T12:03:13.915Z,1.90
2022-08-03T12:08:33.160Z,2.00
2022-08-03T12:14:28.888Z,1.90
2022-08-03T12:19:14.446Z,2.60
2022-08-03T12:24:28.538Z,1.90
2022-08-03T12:29:39.393Z,2.20
2022-08-03T12:34:50.671Z,2.40
2022-08-03T12:40:09.615Z,2.20
2022-08-03T12:45:26.565Z,2.60
2022-08-03T12:50:36.140Z,2.00
2022-08-03T12:55:57.868Z,2.40
2022-08-03T13:01:15.782Z,2.40
2022-08-03T13:06:27.462Z,3.00
2022-08-03T13:11:57.402Z,2.50
2022-08-03T13:22:21.444Z,2.30
2022-08-03T13:28:04.664Z,2.70
2022-08-03T13:33:14.939Z,2.30
2022-08-03T13:38:43.288Z,2.30
2022-08-03T13:44:12.050Z,2.40
2022-08-03T13:49:24.034Z,2.70
2022-08-03T13:54:35.588Z,2.20
2022-08-03T13:59:51.677Z,2.70
2022-08-03T14:05:02.476Z,2.30
2022-08-03T14:10:12.408Z,2.10
2022-08-03T14:15:41.127Z,2.70
2022-08-03T14:20:53.064Z,2.60
2022-08-03T14:26:15.956Z,2.30
2022-08-03T14:32:10.439Z,3.00
2022-08-03T14:36:55.678Z,2.40
2022-08-03T14:42:03.188Z,2.30
2022-08-03T14:47:13.815Z,2.60
2022-08-03T14:52:21.578Z,2.60
2022-08-03T14:57:34.531Z,2.80
2022-08-03T15:02:45.279Z,2.60
2022-08-03T15:07:55.281Z,2.80
2022-08-03T15:13:04.849Z,3.20
2022-08-03T15:18:15.726Z,2.70
2022-08-03T15:23:23.263Z,2.60
2022-08-03T15:28:34.548Z,3.40
2022-08-03T15:33:56.829Z,2.70
2022-08-03T15:39:05.300Z,2.70
2022-08-03T15:44:19.742Z,2.50
2022-08-03T15:49:27.164Z,2.60
2022-08-03T15:54:37.175Z,2.90
2022-08-03T15:59:44.612Z,3.00
2022-08-03T16:05:04.227Z,2.80
2022-08-03T16:10:30.992Z,2.90
2022-08-03T16:15:41.630Z,2.60
2022-08-03T16:20:52.515Z,2.60
2022-08-03T16:26:00.159Z,3.30
2022-08-03T16:31:17.279Z,2.70
2022-08-03T16:36:24.794Z,2.50
2022-08-03T16:42:00.541Z,3.00
2022-08-03T16:47:09.361Z,2.90
2022-08-03T16:52:29.984Z,2.30
2022-08-03T16:57:58.372Z,2.30
2022-08-03T17:08:43.158Z,3.10
2022-08-03T17:19:25.334Z,3.20
2022-08-03T17:24:41.584Z,2.90
2022-08-03T17:30:01.591Z,3.10
2022-08-03T17:35:36.746Z,3.10
2022-08-03T17:41:11.745Z,2.70
2022-08-03T17:46:25.368Z,2.60
2022-08-03T17:51:50.053Z,3.20
2022-08-03T17:57:22.552Z,3.60
2022-08-03T18:03:10.068Z,3.20
2022-08-03T18:08:30.102Z,3.70
2022-08-03T18:14:09.926Z,3.60
2022-08-03T18:20:02.858Z,2.70
2022-08-03T18:25:00.640Z,3.60
2022-08-03T18:30:16.423Z,4.30
2022-08-03T18:35:25.322Z,3.60
2022-08-03T18:40:34.572Z,3.70
2022-08-03T18:46:30.143Z,4.00
2022-08-03T18:52:13.104Z,4.70
2022-08-03T18:57:46.657Z,4.50
2022-08-03T19:03:05.235Z,6.30
2022-08-03T19:08:33.646Z,5.70
2022-08-03T19:13:50.889Z,5.80
2022-08-03T19:19:22.648Z,6.70
2022-08-03T19:24:38.848Z,5.10
2022-08-03T19:29:58.489Z,5.30
2022-08-03T19:35:19.062Z,4.70
2022-08-03T19:41:07.390Z,6.00
2022-08-03T19:46:30.146Z,6.70
2022-08-03T19:51:59.006Z,4.90
2022-08-03T19:57:17.802Z,4.90
2022-08-03T20:02:38.358Z,4.70
2022-08-03T20:08:00.441Z,5.20
2022-08-03T20:13:12.067Z,5.10
2022-08-03T20:18:33.655Z,5.10
2022-08-03T20:24:01.924Z,5.50
2022-08-03T20:30:04.880Z,5.10
2022-08-03T20:34:55.436Z,5.10
2022-08-03T20:40:08.346Z,4.80
2022-08-03T20:45:59.013Z,4.70
2022-08-03T20:50:54.567Z,5.40
2022-08-03T20:56:16.995Z,9.10
2022-08-03T21:01:36.224Z,5.10
2022-08-03T21:12:54.070Z,5.60
2022-08-03T21:18:27.066Z,5.50
2022-08-03T21:23:49.999Z,5.30
2022-08-03T21:29:03.242Z,4.80
2022-08-03T21:34:21.915Z,5.30
2022-08-03T21:39:38.669Z,5.10
2022-08-03T21:45:02.070Z,4.60
2022-08-03T21:50:15.326Z,5.10
2022-08-03T21:55:46.551Z,5.10
2022-08-03T22:01:16.773Z,5.10
2022-08-03T22:06:27.063Z,5.50
2022-08-03T22:11:38.449Z,5.50
2022-08-03T22:16:53.685Z,5.40
2022-08-03T22:22:08.010Z,5.70
2022-08-03T22:27:40.411Z,4.90
2022-08-03T22:33:11.968Z,5.40
2022-08-03T22:38:23.068Z,4.90
2022-08-03T22:43:38.233Z,5.70
2022-08-03T22:49:07.940Z,5.40
2022-08-03T22:54:26.262Z,5.60
2022-08-03T22:59:41.330Z,5.50
2022-08-03T23:06:00.990Z,5.20
2022-08-03T23:11:09.052Z,4.60
2022-08-03T23:16:28.987Z,5.20
2022-08-03T23:22:00.333Z,5.50
2022-08-03T23:27:18.884Z,5.20
2022-08-03T23:32:45.373Z,5.80
2022-08-03T23:38:21.984Z,5.40
2022-08-03T23:43:52.098Z,6.00
2022-08-03T23:49:22.797Z,5.70
2022-08-03T23:55:02.343Z,6.40
